Terminal Aerodrome Forecast
Issued by NWS

Home | Current Version | Previous Version | Text Only | Print | Product List | Glossary On
Versions: 1 2 3 4 5 6 7 8 9 10 11 12
322
FTUS44 KSJT 211133
TAFBBD
TAF
KBBD 211133Z 2112/2212 21009KT P6SM BKN250
     FM211700 29012KT P6SM SCT250
     FM211930 36017G26KT P6SM SCT250
     FM220700 02013KT P6SM SCT250
      AMD NOT SKED=

USA.gov is the U.S. government's official web portal to all federal, state and local government web resources and services.